createdAt,value
2023-05-09T00:00:39.112Z,98094.16
2023-05-09T00:03:16.384Z,98090.62
2023-05-09T00:05:48.423Z,98090.04
2023-05-09T00:08:18.882Z,98091.73
2023-05-09T00:10:49.346Z,98090.64
2023-05-09T00:13:19.880Z,98091.41
2023-05-09T00:15:49.513Z,98086.93
2023-05-09T00:18:19.156Z,98087.78
2023-05-09T00:20:49.838Z,98087.40
2023-05-09T00:23:19.043Z,98085.09
2023-05-09T00:25:49.685Z,98084.88
2023-05-09T00:28:20.977Z,98085.98
2023-05-09T00:30:52.515Z,98081.73
2023-05-09T00:33:27.696Z,98081.81
2023-05-09T00:35:59.005Z,98081.09
2023-05-09T00:38:30.273Z,98076.91
2023-05-09T00:41:01.506Z,98072.20
2023-05-09T00:43:32.030Z,98072.94
2023-05-09T00:46:03.244Z,98071.48
2023-05-09T00:48:34.295Z,98073.01
2023-05-09T00:51:06.759Z,98077.30
2023-05-09T00:53:38.428Z,98075.35
2023-05-09T00:56:09.483Z,98078.11
2023-05-09T00:58:39.282Z,98081.77
2023-05-09T01:01:09.818Z,98083.33
2023-05-09T01:03:43.663Z,98083.54
2023-05-09T01:06:20.056Z,98086.66
2023-05-09T01:08:51.633Z,98091.63
2023-05-09T01:11:25.787Z,98090.23
2023-05-09T01:13:55.867Z,98088.56
2023-05-09T01:16:49.199Z,98087.27
2023-05-09T01:19:18.583Z,98089.71
2023-05-09T01:21:50.398Z,98091.75
2023-05-09T01:24:33.404Z,98095.88
2023-05-09T01:27:22.592Z,98096.15
2023-05-09T01:29:59.563Z,98092.73
2023-05-09T01:32:32.679Z,98089.54
2023-05-09T01:35:04.552Z,98091.56
2023-05-09T01:37:37.683Z,98096.36
2023-05-09T01:40:17.115Z,98096.33
2023-05-09T01:42:51.143Z,98093.42
2023-05-09T01:45:21.480Z,98094.97
2023-05-09T01:47:52.113Z,98093.47
2023-05-09T01:50:25.122Z,98094.13
2023-05-09T01:53:01.254Z,98095.42
2023-05-09T01:55:35.355Z,98090.14
2023-05-09T01:58:08.002Z,98087.97
2023-05-09T02:00:40.687Z,98089.73
2023-05-09T02:03:14.246Z,98091.61
2023-05-09T02:05:46.876Z,98088.73
2023-05-09T02:08:19.271Z,98084.71
2023-05-09T02:10:50.154Z,98085.48
2023-05-09T02:13:21.177Z,98084.34
2023-05-09T02:15:52.018Z,98081.46
2023-05-09T02:18:23.476Z,98084.50
2023-05-09T02:20:56.952Z,98076.20
2023-05-09T02:23:31.533Z,98078.77
2023-05-09T02:26:03.493Z,98076.66
2023-05-09T02:28:35.969Z,98081.13
2023-05-09T02:31:08.957Z,98077.61
2023-05-09T02:33:40.000Z,98083.02
2023-05-09T02:36:13.736Z,98079.52
2023-05-09T02:38:46.897Z,98081.48
2023-05-09T02:41:17.718Z,98078.35
2023-05-09T02:43:48.773Z,98078.73
2023-05-09T02:46:22.697Z,98076.48
2023-05-09T02:48:55.485Z,98075.58
2023-05-09T02:51:28.599Z,98079.20
2023-05-09T02:53:59.805Z,98081.63
2023-05-09T02:56:29.794Z,98089.71
2023-05-09T02:58:59.796Z,98092.39
2023-05-09T03:01:28.865Z,98095.56
2023-05-09T03:03:59.802Z,98097.92
2023-05-09T03:06:29.703Z,98100.13
2023-05-09T03:08:59.694Z,98102.52
2023-05-09T03:11:32.473Z,98104.39
2023-05-09T03:14:03.014Z,98100.43
2023-05-09T03:16:32.773Z,98106.14
2023-05-09T03:19:03.743Z,98102.57
2023-05-09T03:21:33.819Z,98110.14
2023-05-09T03:24:05.136Z,98109.62
2023-05-09T03:26:36.229Z,98111.45
2023-05-09T03:29:05.895Z,98114.46
2023-05-09T03:31:35.523Z,98112.46
2023-05-09T03:34:05.216Z,98118.45
2023-05-09T03:36:34.890Z,98117.59
2023-05-09T03:39:04.992Z,98121.05
2023-05-09T03:41:36.627Z,98120.45
2023-05-09T03:44:06.886Z,98116.73
2023-05-09T03:46:36.468Z,98123.60
2023-05-09T03:49:05.557Z,98122.04
2023-05-09T03:51:35.056Z,98123.93
2023-05-09T03:54:05.486Z,98128.02
2023-05-09T03:56:34.674Z,98126.96
2023-05-09T03:59:04.398Z,98136.88
2023-05-09T04:01:34.594Z,98132.20
2023-05-09T04:04:05.157Z,98135.71
2023-05-09T04:06:37.659Z,98133.55
2023-05-09T04:09:08.478Z,98137.02
2023-05-09T04:11:38.281Z,98131.73
2023-05-09T04:14:09.242Z,98131.95
2023-05-09T04:16:38.555Z,98131.66
2023-05-09T04:19:07.699Z,98132.89
2023-05-09T04:21:38.128Z,98130.52
2023-05-09T04:24:07.117Z,98133.13
2023-05-09T04:26:44.505Z,98136.81
2023-05-09T04:29:16.382Z,98138.65
2023-05-09T04:31:50.472Z,98143.58
2023-05-09T04:34:21.407Z,98140.20
2023-05-09T04:36:50.721Z,98143.81
2023-05-09T04:39:20.042Z,98140.75
2023-05-09T04:41:56.493Z,98140.15
2023-05-09T04:44:25.786Z,98141.88
2023-05-09T04:46:56.232Z,98143.18
2023-05-09T04:49:25.516Z,98143.77
2023-05-09T04:51:54.789Z,98142.35
2023-05-09T04:54:24.524Z,98143.80
2023-05-09T04:57:00.295Z,98145.66
2023-05-09T04:59:33.571Z,98148.48
2023-05-09T05:02:03.376Z,98150.17
2023-05-09T05:04:33.098Z,98149.60
2023-05-09T05:07:03.534Z,98152.46
2023-05-09T05:09:33.080Z,98154.62
2023-05-09T05:12:04.915Z,98156.44
2023-05-09T05:14:35.928Z,98160.46
2023-05-09T05:17:05.591Z,98162.09
2023-05-09T05:19:34.931Z,98165.77
2023-05-09T05:22:04.634Z,98164.91
2023-05-09T05:24:34.154Z,98166.46
2023-05-09T05:27:03.650Z,98166.07
2023-05-09T05:29:33.370Z,98163.21
2023-05-09T05:32:02.564Z,98160.30
2023-05-09T05:34:31.877Z,98158.14
2023-05-09T05:37:01.793Z,98162.30
2023-05-09T05:39:31.366Z,98159.03
2023-05-09T05:42:00.163Z,98159.30
2023-05-09T05:44:29.977Z,98160.84
2023-05-09T05:46:58.968Z,98159.38
2023-05-09T05:49:28.694Z,98159.52
2023-05-09T05:51:58.086Z,98159.00
2023-05-09T05:54:27.989Z,98158.39
2023-05-09T05:56:56.826Z,98161.13
2023-05-09T05:59:26.490Z,98158.45
2023-05-09T06:01:55.817Z,98158.98
2023-05-09T06:04:24.874Z,98158.08
2023-05-09T06:06:53.801Z,98158.61
2023-05-09T06:09:22.766Z,98158.08
2023-05-09T06:11:54.204Z,98157.33
2023-05-09T06:14:23.200Z,98155.61
2023-05-09T06:16:52.417Z,98156.63
2023-05-09T06:19:21.905Z,98155.83
2023-05-09T06:21:50.708Z,98153.94
2023-05-09T06:24:27.991Z,98155.00
2023-05-09T06:27:05.725Z,98152.33
2023-05-09T06:29:34.372Z,98153.64
2023-05-09T06:32:03.877Z,98157.91
2023-05-09T06:34:33.288Z,98163.14
2023-05-09T06:37:02.257Z,98160.78
2023-05-09T06:39:31.469Z,98160.36
2023-05-09T06:42:00.862Z,98160.81
2023-05-09T06:44:33.651Z,98155.29
2023-05-09T06:47:02.435Z,98155.05
2023-05-09T06:49:31.022Z,98152.71
2023-05-09T06:51:59.912Z,98148.92
2023-05-09T06:54:28.487Z,98147.12
2023-05-09T06:56:57.510Z,98144.99
2023-05-09T06:59:26.284Z,98144.55
2023-05-09T07:01:54.894Z,98137.77
2023-05-09T07:04:23.534Z,98134.08
2023-05-09T07:06:51.910Z,98133.77
2023-05-09T07:09:21.333Z,98130.91
2023-05-09T07:11:50.114Z,98125.96
2023-05-09T07:14:19.014Z,98121.73
2023-05-09T07:16:47.773Z,98121.87
2023-05-09T07:19:16.784Z,98125.54
2023-05-09T07:21:46.094Z,98123.02
2023-05-09T07:24:15.186Z,98119.17
2023-05-09T07:26:44.077Z,98122.20
2023-05-09T07:29:12.765Z,98119.31
2023-05-09T07:31:41.453Z,98119.34
2023-05-09T07:34:10.536Z,98121.42
2023-05-09T07:36:39.959Z,98116.75
2023-05-09T07:39:09.025Z,98111.23
2023-05-09T07:41:37.818Z,98108.43
2023-05-09T07:44:06.836Z,98109.09
2023-05-09T07:46:37.820Z,98111.22
2023-05-09T07:49:06.742Z,98112.22
2023-05-09T07:51:35.324Z,98108.59
2023-05-09T07:54:04.387Z,98105.98
2023-05-09T07:56:33.110Z,98104.31
2023-05-09T07:59:03.777Z,98101.52
2023-05-09T08:01:33.256Z,98102.05
2023-05-09T08:04:02.208Z,98100.66
2023-05-09T08:06:31.243Z,98096.58
2023-05-09T08:09:00.213Z,98093.20
2023-05-09T08:11:29.414Z,98093.86
2023-05-09T08:13:58.412Z,98089.69
2023-05-09T08:16:27.739Z,98085.34
2023-05-09T08:18:56.392Z,98086.44
2023-05-09T08:21:25.083Z,98083.91
2023-05-09T08:23:54.178Z,98081.80
2023-05-09T08:26:24.086Z,98078.01
2023-05-09T08:28:54.723Z,98075.06
2023-05-09T08:31:23.670Z,98078.41
2023-05-09T08:33:52.705Z,98075.89
2023-05-09T08:36:21.495Z,98073.64
2023-05-09T08:38:50.606Z,98073.73
2023-05-09T08:41:24.094Z,98073.71
2023-05-09T08:43:53.592Z,98073.40
2023-05-09T08:46:28.158Z,98069.14
2023-05-09T08:48:57.412Z,98064.40
2023-05-09T08:51:26.916Z,98062.95
2023-05-09T08:53:55.506Z,98057.77
2023-05-09T08:56:24.801Z,98054.33
2023-05-09T08:58:54.611Z,98054.11
2023-05-09T09:01:23.945Z,98055.36
2023-05-09T09:03:52.907Z,98057.52
2023-05-09T09:06:22.923Z,98059.27
2023-05-09T09:08:52.848Z,98057.25
2023-05-09T09:11:23.328Z,98055.02
2023-05-09T09:13:53.423Z,98052.58
2023-05-09T09:16:22.942Z,98044.34
2023-05-09T09:18:52.697Z,98037.51
2023-05-09T09:21:21.376Z,98039.95
2023-05-09T09:23:50.839Z,98041.27
2023-05-09T09:26:19.277Z,98040.50
2023-05-09T09:28:48.200Z,98040.27
2023-05-09T09:31:23.666Z,98042.10
2023-05-09T09:33:52.400Z,98036.62
2023-05-09T09:36:28.790Z,98042.01
2023-05-09T09:38:59.510Z,98032.17
2023-05-09T09:41:35.033Z,98030.64
2023-05-09T09:44:10.073Z,98026.04
2023-05-09T09:46:43.505Z,98022.21
2023-05-09T09:49:15.737Z,98022.80
2023-05-09T09:51:44.950Z,98021.00
2023-05-09T09:54:15.636Z,98022.84
2023-05-09T09:56:45.996Z,98028.66
2023-05-09T09:59:15.667Z,98032.00
2023-05-09T10:01:57.902Z,98031.83
2023-05-09T10:04:28.528Z,98026.34
2023-05-09T10:07:07.690Z,98021.75
2023-05-09T10:09:38.524Z,98016.27
2023-05-09T10:12:08.598Z,98015.08
2023-05-09T10:14:39.169Z,98012.27
2023-05-09T10:17:08.817Z,98015.71
2023-05-09T10:19:38.560Z,98017.93
2023-05-09T10:22:10.459Z,98013.08
2023-05-09T10:25:08.607Z,98009.13
2023-05-09T10:27:37.199Z,98005.54
2023-05-09T10:30:13.038Z,98004.30
2023-05-09T10:32:47.850Z,98002.77
2023-05-09T10:35:17.774Z,98005.34
2023-05-09T10:37:46.569Z,98009.23
2023-05-09T10:40:16.044Z,98005.45
2023-05-09T10:42:45.434Z,98000.54
2023-05-09T10:45:14.772Z,97988.38
2023-05-09T10:47:44.327Z,97987.56
2023-05-09T10:50:13.578Z,98007.44
2023-05-09T10:53:01.107Z,98009.50
2023-05-09T10:55:48.442Z,98006.92
2023-05-09T10:58:21.106Z,98006.77
2023-05-09T11:00:50.821Z,98007.43
2023-05-09T11:03:19.995Z,98008.88
2023-05-09T11:05:52.624Z,98007.48
2023-05-09T11:08:23.534Z,98005.27
2023-05-09T11:10:53.558Z,98010.74
2023-05-09T11:13:26.305Z,98008.36
2023-05-09T11:16:01.645Z,98004.06
2023-05-09T11:18:31.143Z,98003.55
2023-05-09T11:21:00.291Z,98003.17
2023-05-09T11:23:31.104Z,98005.72
2023-05-09T11:26:07.415Z,98006.85
2023-05-09T11:28:37.087Z,97999.66
2023-05-09T11:31:19.036Z,97998.01
2023-05-09T11:33:55.460Z,98000.38
2023-05-09T11:36:29.562Z,97998.95
2023-05-09T11:39:04.095Z,97998.89
2023-05-09T11:41:39.893Z,97999.99
2023-05-09T11:44:21.657Z,98004.02
2023-05-09T11:46:50.308Z,97999.60
2023-05-09T11:49:20.762Z,97999.32
2023-05-09T11:51:49.532Z,97999.66
2023-05-09T11:54:18.120Z,97999.08
2023-05-09T11:56:46.901Z,97996.88
2023-05-09T11:59:16.297Z,97994.26
2023-05-09T12:01:45.498Z,97994.10
2023-05-09T12:04:14.194Z,97990.20
2023-05-09T12:06:47.361Z,97990.75
2023-05-09T12:09:16.564Z,97985.40
2023-05-09T12:11:51.299Z,97982.42
2023-05-09T12:14:32.878Z,97979.95
2023-05-09T12:17:02.493Z,97972.17
2023-05-09T12:19:31.540Z,97969.55
2023-05-09T12:22:00.880Z,97974.10
2023-05-09T12:24:30.294Z,97971.32
2023-05-09T12:26:59.700Z,97965.40
2023-05-09T12:29:29.495Z,97963.70
2023-05-09T12:31:58.701Z,97964.89
2023-05-09T12:34:27.500Z,97962.54
2023-05-09T12:36:56.586Z,97958.65
2023-05-09T12:39:27.122Z,97957.79
2023-05-09T12:42:01.597Z,97949.48
2023-05-09T12:44:31.133Z,97945.35
2023-05-09T12:47:01.616Z,97939.41
2023-05-09T12:49:30.659Z,97943.50
2023-05-09T12:52:03.026Z,97937.09
2023-05-09T12:54:33.050Z,97934.95
2023-05-09T12:57:04.717Z,97938.13
2023-05-09T12:59:33.896Z,97939.23
2023-05-09T13:02:02.402Z,97939.34
2023-05-09T13:04:31.370Z,97936.92
2023-05-09T13:07:00.418Z,97935.69
2023-05-09T13:09:29.674Z,97935.58
2023-05-09T13:11:58.246Z,97931.76
2023-05-09T13:14:27.344Z,97934.94
2023-05-09T13:16:56.447Z,97932.07
2023-05-09T13:19:25.225Z,97925.70
2023-05-09T13:21:55.457Z,97924.11
2023-05-09T13:24:23.932Z,97923.91
2023-05-09T13:26:52.624Z,97923.10
2023-05-09T13:29:21.402Z,97920.27
2023-05-09T13:31:50.402Z,97924.74
2023-05-09T13:34:18.886Z,97924.41
2023-05-09T13:36:47.569Z,97915.96
2023-05-09T13:39:16.968Z,97916.40
2023-05-09T13:41:45.760Z,97915.92
2023-05-09T13:44:14.640Z,97910.22
2023-05-09T13:46:43.870Z,97912.67
2023-05-09T13:49:12.932Z,97909.55
2023-05-09T13:51:41.620Z,97912.91
2023-05-09T13:54:13.170Z,97908.43
2023-05-09T13:56:43.189Z,97909.44
2023-05-09T13:59:12.467Z,97908.94
2023-05-09T14:01:41.517Z,97908.88
2023-05-09T14:04:10.239Z,97906.98
2023-05-09T14:06:39.534Z,97908.04
2023-05-09T14:09:09.379Z,97907.58
2023-05-09T14:11:37.776Z,97902.63
2023-05-09T14:14:06.547Z,97900.98
2023-05-09T14:16:35.737Z,97904.71
2023-05-09T14:19:04.544Z,97904.86
2023-05-09T14:21:33.638Z,97902.07
2023-05-09T14:24:02.008Z,97895.77
2023-05-09T14:26:30.805Z,97891.93
2023-05-09T14:28:59.938Z,97890.88
2023-05-09T14:31:29.461Z,97891.83
2023-05-09T14:34:00.476Z,97891.55
2023-05-09T14:36:29.325Z,97894.13
2023-05-09T14:38:58.525Z,97892.59
2023-05-09T14:41:27.419Z,97891.09
2023-05-09T14:43:56.612Z,97885.40
2023-05-09T14:46:25.236Z,97883.61
2023-05-09T14:48:54.587Z,97882.31
2023-05-09T14:51:23.288Z,97882.84
2023-05-09T14:53:53.403Z,97879.75
2023-05-09T14:56:22.612Z,97881.06
2023-05-09T14:58:51.180Z,97883.08
2023-05-09T15:01:20.121Z,97884.97
2023-05-09T15:03:49.429Z,97882.63
2023-05-09T15:06:17.868Z,97881.63
2023-05-09T15:08:46.547Z,97883.84
2023-05-09T15:11:15.034Z,97886.89
2023-05-09T15:13:43.501Z,97886.81
2023-05-09T15:16:12.441Z,97884.16
2023-05-09T15:18:45.791Z,97886.61
2023-05-09T15:21:14.494Z,97886.14
2023-05-09T15:23:43.478Z,97883.30
2023-05-09T15:26:17.377Z,97884.62
2023-05-09T15:28:46.160Z,97888.66
2023-05-09T15:31:15.193Z,97881.98
2023-05-09T15:33:45.172Z,97882.91
2023-05-09T15:36:13.855Z,97879.89
2023-05-09T15:38:42.651Z,97875.44
2023-05-09T15:41:11.137Z,97876.41
2023-05-09T15:43:39.816Z,97869.69
2023-05-09T15:46:08.307Z,97869.80
2023-05-09T15:48:37.132Z,97870.27
2023-05-09T15:51:05.971Z,97872.36
2023-05-09T15:53:34.557Z,97870.55
2023-05-09T15:56:04.108Z,97871.56
2023-05-09T15:58:32.545Z,97871.89
2023-05-09T16:01:01.433Z,97875.22
2023-05-09T16:03:29.971Z,97875.25
2023-05-09T16:05:58.707Z,97874.63
2023-05-09T16:08:27.912Z,97877.38
2023-05-09T16:10:56.381Z,97880.33
2023-05-09T16:13:24.802Z,97884.39
2023-05-09T16:15:54.504Z,97886.23
2023-05-09T16:18:23.571Z,97884.08
2023-05-09T16:20:52.563Z,97887.34
2023-05-09T16:23:21.455Z,97886.30
2023-05-09T16:25:52.485Z,97888.84
2023-05-09T16:28:23.744Z,97888.10
2023-05-09T16:30:52.428Z,97888.38
2023-05-09T16:33:21.321Z,97888.09
2023-05-09T16:35:49.788Z,97890.21
2023-05-09T16:38:19.297Z,97887.11
2023-05-09T16:40:47.784Z,97890.66
2023-05-09T16:43:17.074Z,97890.80
2023-05-09T16:45:46.959Z,97894.46
2023-05-09T16:48:16.722Z,97890.48
2023-05-09T16:50:45.791Z,97887.67
2023-05-09T16:53:15.091Z,97887.03
2023-05-09T16:55:43.676Z,97887.79
2023-05-09T16:58:12.792Z,97886.44
2023-05-09T17:00:41.451Z,97891.23
2023-05-09T17:03:10.098Z,97891.13
2023-05-09T17:05:38.927Z,97893.64
2023-05-09T17:08:08.128Z,97890.39
2023-05-09T17:10:38.092Z,97890.60
2023-05-09T17:13:09.064Z,97891.15
2023-05-09T17:15:38.893Z,97890.75
2023-05-09T17:18:07.648Z,97889.32
2023-05-09T17:20:36.880Z,97890.88
2023-05-09T17:23:05.781Z,97886.90
2023-05-09T17:25:34.152Z,97893.60
2023-05-09T17:28:03.050Z,97891.38
2023-05-09T17:30:31.927Z,97893.48
2023-05-09T17:33:00.333Z,97896.68
2023-05-09T17:35:32.204Z,97898.21
2023-05-09T17:38:01.168Z,97897.35
2023-05-09T17:40:30.060Z,97895.89
2023-05-09T17:42:58.633Z,97896.71
2023-05-09T17:45:27.422Z,97894.44
2023-05-09T17:47:56.448Z,97897.25
2023-05-09T17:50:25.103Z,97899.49
2023-05-09T17:52:54.682Z,97898.64
2023-05-09T17:55:25.244Z,97899.35
2023-05-09T17:57:53.714Z,97900.26
2023-05-09T18:00:22.398Z,97903.06
2023-05-09T18:02:52.010Z,97901.17
2023-05-09T18:05:21.003Z,97902.92
2023-05-09T18:07:49.994Z,97904.96
2023-05-09T18:10:19.244Z,97907.39
2023-05-09T18:12:47.897Z,97909.26
2023-05-09T18:15:16.451Z,97912.20
2023-05-09T18:17:48.508Z,97914.79
2023-05-09T18:20:17.327Z,97919.50
2023-05-09T18:22:47.021Z,97921.50
2023-05-09T18:25:15.511Z,97928.17
2023-05-09T18:27:44.088Z,97935.42
2023-05-09T18:30:13.025Z,97938.31
2023-05-09T18:32:41.887Z,97939.65
2023-05-09T18:35:10.860Z,97938.09
2023-05-09T18:37:40.300Z,97939.59
2023-05-09T18:40:15.142Z,97938.81
2023-05-09T18:42:44.393Z,97941.45
2023-05-09T18:45:13.586Z,97935.02
2023-05-09T18:47:42.096Z,97939.84
2023-05-09T18:50:11.163Z,97942.59
2023-05-09T18:52:39.652Z,97941.05
2023-05-09T18:55:08.529Z,97939.83
2023-05-09T18:57:37.341Z,97939.02
2023-05-09T19:00:06.222Z,97942.54
2023-05-09T19:02:34.722Z,97943.59
2023-05-09T19:05:06.755Z,97940.42
2023-05-09T19:07:36.057Z,97939.08
2023-05-09T19:10:07.273Z,97937.41
2023-05-09T19:12:35.750Z,97941.82
2023-05-09T19:15:04.576Z,97945.23
2023-05-09T19:17:33.486Z,97946.95
2023-05-09T19:20:02.877Z,97941.86
2023-05-09T19:22:31.649Z,97942.08
2023-05-09T19:25:00.967Z,97939.58
2023-05-09T19:27:29.425Z,97939.13
2023-05-09T19:29:59.748Z,97936.55
2023-05-09T19:32:28.261Z,97937.84
2023-05-09T19:34:56.916Z,97935.64
2023-05-09T19:37:25.397Z,97943.27
2023-05-09T19:39:53.904Z,97944.70
2023-05-09T19:42:22.462Z,97942.09
2023-05-09T19:44:52.681Z,97944.43
2023-05-09T19:47:21.680Z,97941.50
2023-05-09T19:49:50.263Z,97941.63
2023-05-09T19:52:19.046Z,97941.63
2023-05-09T19:54:47.531Z,97940.13
2023-05-09T19:57:16.118Z,97948.80
2023-05-09T19:59:44.794Z,97948.67
2023-05-09T20:02:13.590Z,97947.62
2023-05-09T20:04:46.885Z,97947.96
2023-05-09T20:07:17.103Z,97946.81
2023-05-09T20:09:45.582Z,97953.23
2023-05-09T20:12:14.777Z,97946.80
2023-05-09T20:14:44.530Z,97947.66
2023-05-09T20:17:13.087Z,97947.46
2023-05-09T20:19:41.884Z,97952.56
2023-05-09T20:22:11.053Z,97949.29
2023-05-09T20:24:39.536Z,97950.80
2023-05-09T20:27:08.732Z,97945.45
2023-05-09T20:29:37.536Z,97949.77
2023-05-09T20:32:06.555Z,97945.83
2023-05-09T20:34:35.508Z,97952.37
2023-05-09T20:37:04.625Z,97952.88
2023-05-09T20:39:33.189Z,97950.95
2023-05-09T20:42:02.696Z,97957.05
2023-05-09T20:44:31.788Z,97958.67
2023-05-09T20:47:00.479Z,97948.95
2023-05-09T20:49:29.264Z,97954.74
2023-05-09T20:51:57.848Z,97952.27
2023-05-09T20:54:26.832Z,97950.71
2023-05-09T20:56:55.623Z,97949.39
2023-05-09T20:59:24.113Z,97946.84
2023-05-09T21:01:53.928Z,97942.11
2023-05-09T21:04:23.637Z,97946.14
2023-05-09T21:06:52.427Z,97942.23
2023-05-09T21:09:21.157Z,97944.89
2023-05-09T21:11:50.304Z,97942.54
2023-05-09T21:14:18.795Z,97942.35
2023-05-09T21:16:49.052Z,97942.57
2023-05-09T21:19:18.202Z,97941.46
2023-05-09T21:21:47.002Z,97936.54
2023-05-09T21:24:16.394Z,97934.88
2023-05-09T21:26:45.279Z,97933.92
2023-05-09T21:29:15.082Z,97936.30
2023-05-09T21:31:44.396Z,97934.35
2023-05-09T21:34:13.299Z,97933.76
2023-05-09T21:36:42.174Z,97936.39
2023-05-09T21:39:11.059Z,97937.23
2023-05-09T21:41:40.797Z,97937.98
2023-05-09T21:44:11.736Z,97939.22
2023-05-09T21:46:41.867Z,97942.30
2023-05-09T21:49:11.381Z,97940.29
2023-05-09T21:51:40.446Z,97935.38
2023-05-09T21:54:09.321Z,97933.98
2023-05-09T21:56:38.733Z,97933.23
2023-05-09T21:59:07.403Z,97933.02
2023-05-09T22:01:37.498Z,97923.55
2023-05-09T22:04:07.985Z,97925.45
2023-05-09T22:06:37.568Z,97924.58
2023-05-09T22:09:07.104Z,97923.45
2023-05-09T22:11:36.088Z,97924.53
2023-05-09T22:14:05.158Z,97921.75
2023-05-09T22:16:34.147Z,97921.73
2023-05-09T22:19:03.704Z,97921.64
2023-05-09T22:21:33.474Z,97923.77
2023-05-09T22:24:03.417Z,97929.47
2023-05-09T22:26:34.568Z,97930.38
2023-05-09T22:29:04.046Z,97924.21
2023-05-09T22:31:33.156Z,97919.67
2023-05-09T22:34:04.676Z,97919.91
2023-05-09T22:36:33.693Z,97916.69
2023-05-09T22:39:03.625Z,97909.30
2023-05-09T22:41:33.994Z,97912.91
2023-05-09T22:44:03.820Z,97910.55
2023-05-09T22:46:32.755Z,97909.88
2023-05-09T22:49:03.702Z,97909.13
2023-05-09T22:51:34.110Z,97910.11
2023-05-09T22:54:04.013Z,97909.95
2023-05-09T22:56:34.537Z,97904.31
2023-05-09T22:59:04.710Z,97907.27
2023-05-09T23:01:36.246Z,97904.41
2023-05-09T23:04:07.172Z,97901.36
2023-05-09T23:06:37.088Z,97900.63
2023-05-09T23:09:06.891Z,97902.30
2023-05-09T23:11:37.131Z,97900.52
2023-05-09T23:14:07.221Z,97899.23
2023-05-09T23:16:37.143Z,97893.85
2023-05-09T23:19:07.165Z,97887.66
2023-05-09T23:21:37.432Z,97888.02
2023-05-09T23:24:07.616Z,97890.42
2023-05-09T23:26:37.100Z,97886.50
2023-05-09T23:29:06.389Z,97882.73
2023-05-09T23:31:35.816Z,97880.66
2023-05-09T23:34:06.543Z,97879.19
2023-05-09T23:36:35.635Z,97880.11
2023-05-09T23:39:05.447Z,97878.59
2023-05-09T23:41:35.453Z,97878.81
2023-05-09T23:44:05.611Z,97880.23
2023-05-09T23:46:34.976Z,97878.41
2023-05-09T23:49:04.780Z,97875.23
2023-05-09T23:51:34.438Z,97874.94
2023-05-09T23:54:03.767Z,97872.57
2023-05-09T23:56:33.283Z,97875.05
2023-05-09T23:59:02.615Z,97870.33
